Time;durP1;ratioP1;P1;durP2;ratioP2;P2;SDS_P1;SDS_P2;PMS_P1;PMS_P2;Temp;Humidity;BMP_temperature;BMP_pressure;BME280_temperature;BME280_humidity;BME280_pressure;Samples;Min_cycle;Max_cycle;Signal;HPM_P1;HPM_P2
2023/11/21 00:02:13;;;;;;;6.90;3.70;;;7.80;99.90;;;;;;4918081;29;20265;-75
2023/11/21 00:04:39;;;;;;;4.67;4.27;;;7.80;99.90;;;;;;4917606;29;20545;-75
2023/11/21 00:07:05;;;;;;;6.10;3.87;;;7.80;99.90;;;;;;4916253;29;20202;-75
2023/11/21 00:09:31;;;;;;;8.97;3.87;;;7.80;99.90;;;;;;4916823;29;20217;-75
2023/11/21 00:11:59;;;;;;;5.80;3.47;;;7.80;99.90;;;;;;4917740;29;20458;-76
2023/11/21 00:14:24;;;;;;;4.70;3.23;;;7.80;99.90;;;;;;4917731;29;20190;-75
2023/11/21 00:16:50;;;;;;;10.20;3.90;;;7.80;99.90;;;;;;4917586;29;20450;-75
2023/11/21 00:19:16;;;;;;;9.93;4.43;;;7.90;99.90;;;;;;4917518;29;20221;-76
2023/11/21 00:21:44;;;;;;;10.77;3.97;;;7.90;99.90;;;;;;4917223;29;20634;-76
2023/11/21 00:24:09;;;;;;;3.53;2.80;;;7.90;99.90;;;;;;4917665;29;20474;-76
2023/11/21 00:26:37;;;;;;;10.03;3.37;;;8.00;99.90;;;;;;4931945;29;20457;-76
2023/11/21 00:29:03;;;;;;;10.60;3.97;;;7.90;99.90;;;;;;4916213;29;20581;-76
2023/11/21 00:31:30;;;;;;;10.10;3.07;;;7.90;99.90;;;;;;4915442;29;20529;-76
2023/11/21 00:33:56;;;;;;;10.50;5.27;;;7.90;99.90;;;;;;4916431;29;20198;-76
2023/11/21 00:36:21;;;;;;;4.67;3.47;;;7.90;99.90;;;;;;4916630;29;20586;-75
2023/11/21 00:38:48;;;;;;;6.27;4.17;;;7.90;99.90;;;;;;4916163;29;20186;-75
2023/11/21 00:41:13;;;;;;;5.87;3.40;;;7.90;99.90;;;;;;4917393;29;20174;-75
2023/11/21 00:43:39;;;;;;;5.93;2.93;;;7.90;99.90;;;;;;4916505;29;20961;-75
2023/11/21 00:46:07;;;;;;;6.73;3.27;;;7.90;99.90;;;;;;4917192;29;20276;-75
2023/11/21 00:48:33;;;;;;;4.37;3.13;;;7.80;99.90;;;;;;4916537;29;20189;-75
2023/11/21 00:50:58;;;;;;;4.87;2.80;;;7.80;99.90;;;;;;4915941;29;20438;-75
2023/11/21 00:53:24;;;;;;;4.77;2.87;;;7.70;99.90;;;;;;4916500;29;20226;-76
2023/11/21 00:55:49;;;;;;;9.63;3.50;;;7.70;99.90;;;;;;4915697;29;20248;-76
2023/11/21 00:58:15;;;;;;;6.43;2.70;;;7.70;99.90;;;;;;4916240;29;20187;-76
2023/11/21 01:00:41;;;;;;;5.87;3.40;;;7.70;99.90;;;;;;4916503;29;20677;-76
2023/11/21 01:03:07;;;;;;;3.40;2.60;;;7.60;99.90;;;;;;4915810;29;20230;-76
2023/11/21 01:05:34;;;;;;;5.40;2.70;;;7.70;99.90;;;;;;4930201;29;20204;-76
2023/11/21 01:07:59;;;;;;;3.80;2.90;;;7.70;99.90;;;;;;4914638;29;20429;-76
2023/11/21 01:10:25;;;;;;;8.50;2.80;;;7.70;99.90;;;;;;4916748;29;20430;-76
2023/11/21 01:12:51;;;;;;;2.73;2.53;;;7.70;99.90;;;;;;4914659;29;20194;-76
2023/11/21 01:15:16;;;;;;;6.20;2.70;;;7.70;99.90;;;;;;4916065;29;20197;-76
2023/11/21 01:17:42;;;;;;;9.27;2.60;;;7.70;99.90;;;;;;4916712;29;20194;-76
2023/11/21 01:20:11;;;;;;;6.73;2.90;;;7.70;99.90;;;;;;4916051;29;20205;-76
2023/11/21 01:22:37;;;;;;;6.90;4.67;;;7.70;99.90;;;;;;4915978;29;20548;-76
2023/11/21 01:25:06;;;;;;;5.80;3.00;;;7.80;99.90;;;;;;4915537;29;20533;-76
2023/11/21 01:27:32;;;;;;;9.10;2.70;;;7.70;99.90;;;;;;4915813;29;20197;-76
2023/11/21 01:29:57;;;;;;;4.47;2.40;;;7.80;99.90;;;;;;4914710;29;20937;-76
2023/11/21 01:32:23;;;;;;;7.60;2.40;;;7.80;99.90;;;;;;4915036;29;20237;-76
2023/11/21 01:34:50;;;;;;;3.50;2.37;;;7.80;99.90;;;;;;4916521;29;20186;-76
2023/11/21 01:37:17;;;;;;;3.00;2.20;;;7.80;99.90;;;;;;4943449;23;20312;-69
2023/11/21 01:39:44;;;;;;;8.87;3.30;;;7.80;99.90;;;;;;4935390;29;20963;-69
2023/11/21 01:42:11;;;;;;;4.50;2.33;;;7.90;99.90;;;;;;4935041;29;20440;-69
2023/11/21 01:44:36;;;;;;;3.60;2.10;;;7.90;99.90;;;;;;4934507;29;20504;-69
2023/11/21 01:47:04;;;;;;;7.27;2.93;;;7.90;99.90;;;;;;4926035;29;20465;-69
2023/11/21 01:49:33;;;;;;;4.00;2.00;;;7.90;99.90;;;;;;4934004;29;20182;-70
2023/11/21 01:51:59;;;;;;;4.80;2.33;;;7.90;99.90;;;;;;4934358;29;20433;-70
2023/11/21 01:54:25;;;;;;;3.40;2.10;;;7.80;99.90;;;;;;4926953;29;20455;-70
2023/11/21 01:56:51;;;;;;;5.93;2.43;;;7.80;99.90;;;;;;4933322;29;20463;-70
2023/11/21 01:59:23;;;;;;;2.23;1.90;;;7.80;99.90;;;;;;4935049;29;20520;-70
2023/11/21 02:01:50;;;;;;;2.33;1.93;;;7.80;99.90;;;;;;4934646;29;20181;-70
2023/11/21 02:04:16;;;;;;;3.20;2.13;;;7.80;99.90;;;;;;4934299;29;20522;-70
2023/11/21 02:06:41;;;;;;;3.00;2.20;;;7.80;99.90;;;;;;4928518;29;20461;-70
2023/11/21 02:09:08;;;;;;;5.97;2.20;;;7.80;99.90;;;;;;4915995;29;20511;-70
2023/11/21 02:11:34;;;;;;;4.73;2.30;;;7.80;99.90;;;;;;4924169;29;20174;-70
2023/11/21 02:14:00;;;;;;;2.90;2.60;;;7.80;99.90;;;;;;4933732;29;20451;-70
2023/11/21 02:16:27;;;;;;;3.13;1.90;;;7.90;99.90;;;;;;4932262;29;20457;-69
2023/11/21 02:18:53;;;;;;;3.10;2.23;;;7.90;99.90;;;;;;4934571;29;21794;-70
2023/11/21 02:21:19;;;;;;;4.63;2.20;;;7.90;99.90;;;;;;4931433;29;20473;-70
2023/11/21 02:23:46;;;;;;;4.93;2.07;;;7.90;99.90;;;;;;4949278;29;21010;-70
2023/11/21 02:26:13;;;;;;;6.63;3.10;;;7.90;99.90;;;;;;4931982;29;20581;-70
2023/11/21 02:28:39;;;;;;;3.10;2.00;;;7.90;99.90;;;;;;4927045;29;20468;-71
2023/11/21 02:31:07;;;;;;;1.90;1.80;;;7.90;99.90;;;;;;4934477;29;20474;-70
2023/11/21 02:33:33;;;;;;;4.50;3.00;;;7.90;99.90;;;;;;4929223;29;20445;-70
2023/11/21 02:36:02;;;;;;;4.97;2.13;;;7.80;99.90;;;;;;4931922;29;21028;-70
2023/11/21 02:38:28;;;;;;;2.60;1.70;;;7.70;99.90;;;;;;4929719;29;20430;-70
2023/11/21 02:40:54;;;;;;;2.70;1.40;;;7.70;99.90;;;;;;4933786;29;20842;-70
2023/11/21 02:43:19;;;;;;;5.00;3.67;;;7.70;99.90;;;;;;4934258;29;20234;-70
2023/11/21 02:45:45;;;;;;;1.70;1.60;;;7.70;99.90;;;;;;4933157;29;20201;-70
2023/11/21 02:48:10;;;;;;;5.80;1.80;;;7.70;99.90;;;;;;4933429;29;20182;-71
2023/11/21 02:50:37;;;;;;;3.00;1.50;;;7.70;99.90;;;;;;4929144;29;20581;-71
2023/11/21 02:53:04;;;;;;;2.77;1.87;;;7.70;99.90;;;;;;4924381;29;20189;-70
2023/11/21 02:55:30;;;;;;;2.13;1.87;;;7.70;99.90;;;;;;4933519;29;20452;-70
2023/11/21 02:57:58;;;;;;;2.27;1.50;;;7.70;99.90;;;;;;4932669;29;20449;-70
2023/11/21 03:00:25;;;;;;;2.20;1.63;;;7.70;99.90;;;;;;4934177;29;20432;-70
2023/11/21 03:02:50;;;;;;;2.80;1.80;;;7.70;99.90;;;;;;4934226;29;20479;-70
2023/11/21 03:05:16;;;;;;;2.50;1.43;;;7.70;99.90;;;;;;4932988;29;20434;-71
2023/11/21 03:07:41;;;;;;;2.77;1.50;;;7.70;99.90;;;;;;4933387;29;20198;-70
2023/11/21 03:10:11;;;;;;;4.40;3.80;;;7.70;99.90;;;;;;4933891;29;20174;-70
2023/11/21 03:12:40;;;;;;;1.73;1.47;;;7.70;99.90;;;;;;4934386;29;20599;-70
2023/11/21 03:15:07;;;;;;;4.20;2.30;;;7.60;99.90;;;;;;4933702;29;20469;-70
2023/11/21 03:17:36;;;;;;;2.37;1.60;;;7.60;99.90;;;;;;4932732;29;20835;-70
2023/11/21 03:20:02;;;;;;;4.53;1.53;;;7.60;99.90;;;;;;4934083;29;20500;-70
2023/11/21 03:22:28;;;;;;;1.80;1.70;;;7.60;99.90;;;;;;4934257;29;20523;-70
2023/11/21 03:24:53;;;;;;;6.13;1.53;;;7.60;99.90;;;;;;4934402;29;20902;-70
2023/11/21 03:27:19;;;;;;;1.43;1.33;;;7.60;99.90;;;;;;4932606;29;20285;-70
2023/11/21 03:29:46;;;;;;;2.60;1.47;;;7.60;99.90;;;;;;4927622;29;20551;-70
2023/11/21 03:32:12;;;;;;;3.67;2.07;;;7.60;99.90;;;;;;4927702;29;20666;-70
2023/11/21 03:34:54;;;;;;;2.00;1.70;;;7.60;99.90;;;;;;4936730;29;20523;-70
2023/11/21 03:37:20;;;;;;;1.90;1.40;;;7.70;99.90;;;;;;4936026;29;20680;-71
2023/11/21 03:39:46;;;;;;;4.10;1.30;;;7.80;99.90;;;;;;4936944;29;20437;-71
2023/11/21 03:42:12;;;;;;;2.20;1.33;;;7.80;99.90;;;;;;4936860;29;21094;-70
2023/11/21 03:44:37;;;;;;;2.07;1.63;;;7.80;99.90;;;;;;4931972;29;20178;-70
2023/11/21 03:47:03;;;;;;;1.53;1.00;;;7.80;99.90;;;;;;4924524;29;20461;-70
2023/11/21 03:49:29;;;;;;;5.30;3.27;;;7.80;99.90;;;;;;4936856;29;20272;-70
2023/11/21 03:51:55;;;;;;;3.37;2.00;;;7.80;99.90;;;;;;4921764;29;20733;-70
2023/11/21 03:54:21;;;;;;;4.87;2.00;;;7.80;99.90;;;;;;4918340;29;20174;-71
2023/11/21 03:56:46;;;;;;;3.77;1.37;;;7.80;99.90;;;;;;4931888;29;20476;-71
2023/11/21 03:59:12;;;;;;;3.03;1.20;;;7.80;99.90;;;;;;4936022;29;20181;-71
2023/11/21 04:01:37;;;;;;;2.03;1.30;;;7.80;99.90;;;;;;4932725;29;20262;-70
2023/11/21 04:04:04;;;;;;;3.37;1.07;;;7.80;99.90;;;;;;4935869;29;20301;-71
2023/11/21 04:06:29;;;;;;;1.93;1.50;;;7.70;99.90;;;;;;4917924;29;20571;-70
2023/11/21 04:08:55;;;;;;;1.60;1.10;;;7.70;99.90;;;;;;4925919;29;20441;-71
2023/11/21 04:11:20;;;;;;;4.60;1.50;;;7.70;99.90;;;;;;4936685;29;20177;-71
2023/11/21 04:13:46;;;;;;;6.00;1.43;;;7.80;99.90;;;;;;4936828;29;20264;-71
2023/11/21 04:16:12;;;;;;;1.73;1.30;;;7.80;99.90;;;;;;4936058;29;20552;-71
2023/11/21 04:18:38;;;;;;;2.60;1.00;;;7.80;99.90;;;;;;4935585;29;20501;-71
2023/11/21 04:21:05;;;;;;;2.67;1.23;;;7.80;99.90;;;;;;4936233;29;20830;-71
2023/11/21 04:23:34;;;;;;;7.43;3.40;;;7.80;99.90;;;;;;4924129;29;20469;-71
2023/11/21 04:26:01;;;;;;;2.20;1.27;;;7.80;99.90;;;;;;4934825;29;21036;-71
2023/11/21 04:28:27;;;;;;;1.70;0.90;;;7.70;99.90;;;;;;4935489;29;20527;-71
2023/11/21 04:30:53;;;;;;;2.93;1.27;;;7.70;99.90;;;;;;4936493;29;20952;-70
2023/11/21 04:33:19;;;;;;;2.17;1.03;;;7.70;99.90;;;;;;4936064;29;20470;-70
2023/11/21 04:35:44;;;;;;;2.27;1.73;;;7.80;99.90;;;;;;4925471;29;20216;-70
2023/11/21 04:38:10;;;;;;;1.70;1.20;;;7.80;99.90;;;;;;4935296;29;20197;-70
2023/11/21 04:40:35;;;;;;;4.70;1.63;;;7.90;99.90;;;;;;4935108;29;20201;-70
2023/11/21 04:43:01;;;;;;;1.80;1.40;;;7.80;99.90;;;;;;4935692;29;20210;-70
2023/11/21 04:45:27;;;;;;;2.10;1.00;;;7.70;99.90;;;;;;4923664;29;20597;-70
2023/11/21 04:47:52;;;;;;;1.20;1.10;;;7.70;99.90;;;;;;4929689;29;20441;-70
2023/11/21 04:50:19;;;;;;;0.90;0.90;;;7.70;99.90;;;;;;4925225;29;20555;-70
2023/11/21 04:52:44;;;;;;;1.73;1.43;;;7.60;99.90;;;;;;4936040;29;20182;-70
2023/11/21 04:55:10;;;;;;;2.10;1.27;;;7.60;99.90;;;;;;4927434;29;20433;-70
2023/11/21 04:57:41;;;;;;;0.93;0.93;;;7.60;99.90;;;;;;4927451;29;20201;-70
2023/11/21 05:00:07;;;;;;;1.47;1.27;;;7.60;99.90;;;;;;4934420;29;20181;-70
2023/11/21 05:02:35;;;;;;;1.50;1.00;;;7.60;99.90;;;;;;4933716;29;20469;-70
2023/11/21 05:05:02;;;;;;;1.33;1.23;;;7.60;99.90;;;;;;4927296;29;20426;-70
2023/11/21 05:07:30;;;;;;;3.03;1.50;;;7.60;99.90;;;;;;4916767;29;20457;-70
2023/11/21 05:09:56;;;;;;;2.00;1.17;;;7.50;99.90;;;;;;4929041;29;20819;-70
2023/11/21 05:12:24;;;;;;;1.27;0.97;;;7.50;99.90;;;;;;4927455;29;20437;-71
2023/11/21 05:14:50;;;;;;;2.13;1.17;;;7.50;99.90;;;;;;4928582;29;20269;-70
2023/11/21 05:17:16;;;;;;;1.30;0.97;;;7.50;99.90;;;;;;4932889;29;20520;-70
2023/11/21 05:19:42;;;;;;;1.23;1.13;;;7.40;99.90;;;;;;4935210;29;20433;-70
2023/11/21 05:22:08;;;;;;;1.53;0.90;;;7.40;99.90;;;;;;4933306;29;20178;-69
2023/11/21 05:24:34;;;;;;;1.50;1.37;;;7.40;99.90;;;;;;4935363;29;21067;-69
2023/11/21 05:27:00;;;;;;;0.93;0.93;;;7.40;99.90;;;;;;4934508;29;20703;-70
2023/11/21 05:29:26;;;;;;;2.40;1.10;;;7.30;99.90;;;;;;4933111;29;20443;-70
2023/11/21 05:31:52;;;;;;;1.80;0.90;;;7.30;99.90;;;;;;4932184;29;20669;-70
2023/11/21 05:34:18;;;;;;;1.30;1.20;;;7.30;99.90;;;;;;4934507;29;20534;-70
2023/11/21 05:36:45;;;;;;;2.17;1.67;;;7.20;99.90;;;;;;4928625;29;20488;-69
2023/11/21 05:39:11;;;;;;;3.23;1.30;;;7.20;99.90;;;;;;4935249;29;20654;-70
2023/11/21 05:41:36;;;;;;;3.50;1.23;;;7.20;99.90;;;;;;4925250;29;20473;-70
2023/11/21 05:44:02;;;;;;;2.30;1.43;;;7.20;99.90;;;;;;4932987;29;20223;-71
2023/11/21 05:46:28;;;;;;;1.77;1.10;;;7.20;99.90;;;;;;4934283;29;20209;-71
2023/11/21 05:48:53;;;;;;;1.83;1.37;;;7.20;99.90;;;;;;4927473;29;20179;-72
2023/11/21 05:51:19;;;;;;;2.77;1.87;;;7.20;99.90;;;;;;4933612;29;20260;-70
2023/11/21 05:53:44;;;;;;;3.07;2.23;;;7.20;99.90;;;;;;4925762;29;20193;-69
2023/11/21 05:56:10;;;;;;;4.03;2.40;;;7.20;99.90;;;;;;4934026;29;20201;-69
2023/11/21 05:58:35;;;;;;;2.40;2.10;;;7.20;99.90;;;;;;4934649;29;20549;-69
2023/11/21 06:01:02;;;;;;;1.47;1.30;;;7.20;99.90;;;;;;4933533;29;20232;-69
2023/11/21 06:03:28;;;;;;;1.63;1.40;;;7.20;99.90;;;;;;4933941;29;20198;-69
2023/11/21 06:05:54;;;;;;;1.90;1.20;;;7.20;99.90;;;;;;4934466;29;21171;-70
2023/11/21 06:08:19;;;;;;;2.03;1.30;;;7.30;99.90;;;;;;4931234;29;20166;-70
2023/11/21 06:10:45;;;;;;;2.07;1.40;;;7.30;99.90;;;;;;4925457;29;20268;-70
2023/11/21 06:13:10;;;;;;;1.03;1.00;;;7.30;99.90;;;;;;4934828;29;20190;-70
2023/11/21 06:15:36;;;;;;;1.80;1.57;;;7.30;99.90;;;;;;4933101;29;20277;-70
2023/11/21 06:18:02;;;;;;;2.40;1.63;;;7.30;99.90;;;;;;4933214;29;20596;-70
2023/11/21 06:20:27;;;;;;;2.70;1.93;;;7.30;99.90;;;;;;4930448;29;20221;-70
2023/11/21 06:22:53;;;;;;;1.47;1.37;;;7.30;99.90;;;;;;4927234;29;20213;-70
2023/11/21 06:25:19;;;;;;;1.37;1.27;;;7.30;99.90;;;;;;4931870;29;20592;-70
2023/11/21 06:27:48;;;;;;;2.37;1.60;;;7.30;99.90;;;;;;4933813;29;20649;-70
2023/11/21 06:30:15;;;;;;;4.43;1.60;;;7.30;99.90;;;;;;4933549;29;20907;-70
2023/11/21 06:32:41;;;;;;;3.60;1.33;;;7.30;99.90;;;;;;4933530;29;20468;-70
2023/11/21 06:35:11;;;;;;;3.67;1.70;;;7.30;99.90;;;;;;4933882;29;20448;-70
2023/11/21 06:37:37;;;;;;;3.83;1.70;;;7.40;99.90;;;;;;4931993;29;20551;-70
2023/11/21 06:40:04;;;;;;;2.27;2.07;;;7.40;99.90;;;;;;4934097;29;20500;-72
2023/11/21 06:42:30;;;;;;;3.20;2.60;;;7.40;99.90;;;;;;4934469;29;20425;-70
2023/11/21 06:44:59;;;;;;;4.57;2.47;;;7.40;99.90;;;;;;4933965;29;20853;-75
2023/11/21 06:47:25;;;;;;;3.30;2.53;;;7.40;99.90;;;;;;4933114;29;20886;-70
2023/11/21 06:49:51;;;;;;;2.73;2.43;;;7.50;99.90;;;;;;4927091;29;20438;-70
2023/11/21 06:52:18;;;;;;;3.27;2.97;;;7.50;99.90;;;;;;4915484;29;20427;-70
2023/11/21 06:54:43;;;;;;;4.47;2.67;;;7.60;99.90;;;;;;4918754;29;20443;-70
2023/11/21 06:57:09;;;;;;;3.30;3.00;;;7.60;99.90;;;;;;4934451;29;20525;-70
2023/11/21 06:59:35;;;;;;;3.70;3.40;;;7.60;99.90;;;;;;4934506;29;20174;-70
2023/11/21 07:02:00;;;;;;;5.47;2.80;;;7.60;99.90;;;;;;4934590;29;20174;-70
2023/11/21 07:04:26;;;;;;;3.33;3.03;;;7.60;99.90;;;;;;4934595;29;20241;-70
2023/11/21 07:06:53;;;;;;;4.20;1.77;;;7.70;99.90;;;;;;4934117;29;20197;-70
2023/11/21 07:09:21;;;;;;;3.33;3.00;;;7.70;99.90;;;;;;4937415;29;20281;-70
2023/11/21 07:11:48;;;;;;;8.00;2.77;;;7.70;99.90;;;;;;4937918;29;20430;-70
2023/11/21 07:14:14;;;;;;;4.07;2.20;;;7.80;99.90;;;;;;4938083;29;20449;-70
2023/11/21 07:16:39;;;;;;;1.80;1.70;;;7.80;99.90;;;;;;4937719;29;20474;-70
2023/11/21 07:19:08;;;;;;;3.70;2.73;;;7.80;99.90;;;;;;4937984;29;20444;-70
2023/11/21 07:21:36;;;;;;;3.20;2.80;;;7.80;99.90;;;;;;4937869;29;20225;-70
2023/11/21 07:24:03;;;;;;;2.90;2.03;;;7.80;99.90;;;;;;4937774;29;20464;-70
2023/11/21 07:26:29;;;;;;;5.33;2.30;;;7.80;99.90;;;;;;4937353;29;20444;-70
2023/11/21 07:28:55;;;;;;;4.20;2.47;;;7.80;99.90;;;;;;4937800;29;20468;-70
2023/11/21 07:31:21;;;;;;;3.30;2.63;;;7.80;99.90;;;;;;4937849;29;20428;-70
2023/11/21 07:33:47;;;;;;;3.73;2.83;;;7.80;99.90;;;;;;4937717;29;20421;-70
2023/11/21 07:36:14;;;;;;;4.97;3.73;;;7.80;99.90;;;;;;4942208;29;20466;-70
2023/11/21 07:38:40;;;;;;;4.43;3.00;;;7.80;99.90;;;;;;4937496;29;20835;-70
2023/11/21 07:41:07;;;;;;;2.33;2.10;;;7.90;99.90;;;;;;4937042;29;20433;-70
2023/11/21 07:43:36;;;;;;;1.90;1.80;;;7.90;99.90;;;;;;4937161;29;20312;-70
2023/11/21 07:46:03;;;;;;;3.00;1.93;;;7.90;99.90;;;;;;4933536;29;20876;-70
2023/11/21 07:48:29;;;;;;;2.40;2.17;;;7.90;99.90;;;;;;4937138;29;20421;-71
2023/11/21 07:50:55;;;;;;;2.60;1.87;;;7.90;99.90;;;;;;4937401;29;20429;-70
2023/11/21 07:53:21;;;;;;;13.27;9.93;;;8.00;99.90;;;;;;4937479;29;21004;-70
2023/11/21 07:55:47;;;;;;;5.30;4.03;;;8.00;99.90;;;;;;4936993;29;20457;-70
2023/11/21 07:58:13;;;;;;;3.93;3.50;;;8.10;99.90;;;;;;4937032;29;20430;-70
2023/11/21 08:00:39;;;;;;;5.80;5.13;;;8.20;99.90;;;;;;4937254;29;20184;-70
2023/11/21 08:03:05;;;;;;;5.03;3.20;;;8.20;99.90;;;;;;4937032;29;20461;-69
2023/11/21 08:05:31;;;;;;;3.07;2.80;;;8.10;99.90;;;;;;4936964;29;20417;-70
2023/11/21 08:07:57;;;;;;;3.47;2.87;;;8.10;99.90;;;;;;4936750;29;20489;-70
2023/11/21 08:10:22;;;;;;;3.70;3.07;;;8.00;99.90;;;;;;4936889;29;20178;-70
2023/11/21 08:12:51;;;;;;;5.53;3.00;;;8.00;99.90;;;;;;4937021;29;20181;-70
2023/11/21 08:15:16;;;;;;;7.30;4.10;;;8.10;99.90;;;;;;4936959;29;20212;-70
2023/11/21 08:17:42;;;;;;;3.50;3.20;;;8.10;99.90;;;;;;4936583;29;20881;-69
2023/11/21 08:20:10;;;;;;;3.47;2.93;;;8.20;99.90;;;;;;4935905;29;20185;-70
2023/11/21 08:22:36;;;;;;;2.80;2.60;;;8.40;99.90;;;;;;4936766;29;20352;-70
2023/11/21 08:25:04;;;;;;;3.27;3.07;;;8.50;99.90;;;;;;4936581;29;20508;-71
2023/11/21 08:27:29;;;;;;;3.67;3.37;;;8.50;99.90;;;;;;4936425;29;20437;-70
2023/11/21 08:29:56;;;;;;;5.10;4.33;;;8.50;99.90;;;;;;4936736;29;20448;-70
2023/11/21 08:32:21;;;;;;;4.00;3.37;;;8.50;99.90;;;;;;4936626;29;20536;-69
2023/11/21 08:34:50;;;;;;;3.27;2.80;;;8.50;99.90;;;;;;4936570;29;20425;-71
2023/11/21 08:37:16;;;;;;;6.20;3.03;;;8.50;99.90;;;;;;4936086;29;20208;-69
2023/11/21 08:39:43;;;;;;;3.00;2.70;;;8.50;99.90;;;;;;4936323;29;20508;-70
2023/11/21 08:42:09;;;;;;;3.57;2.73;;;8.60;99.90;;;;;;4936664;29;20433;-70
2023/11/21 08:44:34;;;;;;;3.67;2.83;;;8.70;99.90;;;;;;4936111;29;20457;-70
2023/11/21 08:47:00;;;;;;;5.63;3.60;;;8.80;99.90;;;;;;4935801;29;20224;-70
2023/11/21 08:49:29;;;;;;;5.57;3.30;;;8.90;99.90;;;;;;4936381;29;20174;-70
2023/11/21 08:51:59;;;;;;;5.07;3.60;;;9.10;99.90;;;;;;4936335;29;20181;-71
2023/11/21 08:54:25;;;;;;;4.07;3.50;;;9.20;99.90;;;;;;4936299;29;20434;-71
2023/11/21 08:56:54;;;;;;;3.60;3.30;;;9.40;99.90;;;;;;4935936;29;20453;-71
2023/11/21 08:59:20;;;;;;;2.30;2.03;;;9.50;99.90;;;;;;4936213;29;20433;-71
2023/11/21 09:01:46;;;;;;;2.50;1.70;;;9.80;99.90;;;;;;4934842;29;20861;-69
2023/11/21 09:04:12;;;;;;;5.27;1.80;;;10.10;99.90;;;;;;4936011;29;20465;-70
2023/11/21 09:06:39;;;;;;;2.77;1.87;;;10.10;99.90;;;;;;4928229;29;20457;-71
2023/11/21 09:09:06;;;;;;;1.80;1.70;;;10.30;99.90;;;;;;4935146;29;20437;-70
2023/11/21 09:11:33;;;;;;;1.53;1.43;;;10.60;99.90;;;;;;4935816;29;20984;-70
2023/11/21 09:14:00;;;;;;;1.93;1.83;;;10.90;99.90;;;;;;4935756;29;20545;-70
2023/11/21 09:16:25;;;;;;;2.23;2.00;;;11.10;99.90;;;;;;4935521;29;20461;-69
2023/11/21 09:18:51;;;;;;;1.80;1.70;;;11.20;99.90;;;;;;4935719;29;20802;-71
2023/11/21 09:21:17;;;;;;;1.60;1.50;;;11.20;99.90;;;;;;4935809;29;20641;-71
2023/11/21 09:23:44;;;;;;;2.97;1.70;;;11.10;99.90;;;;;;4935325;29;20212;-70
2023/11/21 09:26:10;;;;;;;2.23;2.03;;;10.70;99.90;;;;;;4935609;29;20217;-71
2023/11/21 09:28:37;;;;;;;1.60;1.50;;;10.60;99.90;;;;;;4935195;29;20457;-70
2023/11/21 09:31:04;;;;;;;1.63;1.53;;;10.40;99.90;;;;;;4934197;29;20170;-71
2023/11/21 09:33:31;;;;;;;1.90;1.80;;;10.20;99.90;;;;;;4935429;29;20425;-70
2023/11/21 09:35:56;;;;;;;4.43;2.27;;;10.40;99.90;;;;;;4935310;29;20453;-70
2023/11/21 09:38:22;;;;;;;1.80;1.70;;;10.60;99.90;;;;;;4934830;29;20936;-69
2023/11/21 09:40:49;;;;;;;1.73;1.63;;;10.60;99.90;;;;;;4935039;29;20197;-70
2023/11/21 09:43:17;;;;;;;1.70;1.60;;;10.60;99.90;;;;;;4935103;29;20194;-70
2023/11/21 09:45:54;;;;;;;1.40;1.30;;;10.70;99.90;;;;;;4928744;29;20788;-69
2023/11/21 09:48:20;;;;;;;1.37;1.20;;;10.90;99.90;;;;;;4932701;29;20433;-70
2023/11/21 09:50:47;;;;;;;2.00;1.30;;;10.90;99.90;;;;;;4933401;29;20848;-70
2023/11/21 09:53:17;;;;;;;1.00;1.00;;;10.80;99.90;;;;;;4934744;29;20996;-69
2023/11/21 09:55:44;;;;;;;2.50;1.50;;;10.90;99.90;;;;;;4934961;29;20460;-70
2023/11/21 09:58:12;;;;;;;2.80;2.17;;;10.70;99.90;;;;;;4934837;29;20530;-70
2023/11/21 10:00:40;;;;;;;2.20;1.90;;;10.60;99.90;;;;;;4933837;29;20844;-70
2023/11/21 10:03:06;;;;;;;2.10;1.87;;;10.50;99.90;;;;;;4934997;29;20823;-70
2023/11/21 10:05:34;;;;;;;1.77;1.40;;;10.40;99.90;;;;;;4934972;29;20786;-70
2023/11/21 10:07:59;;;;;;;1.63;1.53;;;10.00;99.90;;;;;;4934607;29;20429;-70
2023/11/21 10:10:28;;;;;;;1.80;1.60;;;9.80;99.90;;;;;;4934923;29;20429;-70
2023/11/21 10:12:56;;;;;;;4.77;2.00;;;9.70;99.90;;;;;;4933618;29;20189;-69
2023/11/21 10:15:23;;;;;;;2.17;1.60;;;9.70;99.90;;;;;;4934959;29;20480;-70
2023/11/21 10:17:53;;;;;;;2.37;1.97;;;9.70;99.90;;;;;;4934529;29;20449;-70
2023/11/21 10:20:19;;;;;;;6.13;3.30;;;9.70;99.90;;;;;;4934837;29;21137;-70
2023/11/21 10:22:45;;;;;;;2.67;1.93;;;9.70;99.90;;;;;;4934512;29;20555;-70
2023/11/21 10:25:14;;;;;;;2.50;1.70;;;9.70;99.90;;;;;;4934779;29;20898;-70
2023/11/21 10:27:40;;;;;;;2.00;1.50;;;9.60;99.90;;;;;;4934425;29;20194;-69
2023/11/21 10:30:08;;;;;;;5.20;2.00;;;9.70;99.90;;;;;;4934847;29;20847;-69
2023/11/21 10:32:33;;;;;;;2.00;1.80;;;9.60;99.90;;;;;;4934694;29;20425;-70
2023/11/21 10:35:06;;;;;;;1.80;1.70;;;9.50;99.90;;;;;;4934753;29;20834;-70
2023/11/21 10:37:34;;;;;;;2.23;1.93;;;9.50;99.90;;;;;;4933798;29;20201;-70
2023/11/21 10:40:00;;;;;;;2.83;2.63;;;9.60;99.90;;;;;;4934643;29;20428;-70
2023/11/21 10:42:27;;;;;;;3.03;1.80;;;9.60;99.90;;;;;;4934526;29;20425;-70
2023/11/21 10:44:53;;;;;;;2.63;2.30;;;9.60;99.90;;;;;;4938789;29;20271;-71
2023/11/21 10:47:19;;;;;;;3.80;2.00;;;9.60;99.90;;;;;;4938280;29;20437;-70
2023/11/21 10:49:48;;;;;;;1.77;1.67;;;9.60;99.90;;;;;;4938549;29;20837;-71
2023/11/21 10:52:17;;;;;;;7.87;2.70;;;9.50;99.90;;;;;;4938291;29;20429;-70
2023/11/21 10:54:43;;;;;;;5.33;4.47;;;9.60;99.90;;;;;;4938537;29;20417;-70
2023/11/21 10:57:10;;;;;;;3.33;3.03;;;9.50;99.90;;;;;;4938263;29;20448;-71
2023/11/21 10:59:36;;;;;;;3.50;2.83;;;9.50;99.90;;;;;;4938462;29;20429;-70
2023/11/21 11:02:20;;;;;;;2.90;2.70;;;9.40;99.90;;;;;;4938316;29;20420;-70
2023/11/21 11:04:48;;;;;;;3.17;2.80;;;9.50;99.90;;;;;;4938309;29;20939;-71
2023/11/21 11:07:16;;;;;;;3.27;2.70;;;9.50;99.90;;;;;;4951144;29;20445;-71
2023/11/21 11:09:41;;;;;;;5.43;2.77;;;9.60;99.90;;;;;;4938094;29;20944;-77
2023/11/21 11:12:09;;;;;;;5.63;2.37;;;9.70;99.90;;;;;;4938117;29;20626;-70
2023/11/21 11:14:36;;;;;;;1.93;1.83;;;9.70;99.90;;;;;;4938193;29;20232;-69
2023/11/21 11:17:03;;;;;;;3.37;2.03;;;9.70;99.90;;;;;;4938164;29;20445;-70
2023/11/21 11:19:30;;;;;;;3.07;1.80;;;9.60;99.90;;;;;;4939054;29;20425;-70
2023/11/21 11:22:12;;;;;;;2.50;2.30;;;9.70;99.90;;;;;;4938109;29;20553;-69
2023/11/21 11:25:06;;;;;;;2.93;2.43;;;9.80;99.90;;;;;;4936543;29;20559;-70
2023/11/21 11:27:50;;;;;;;3.03;2.17;;;9.80;99.90;;;;;;4918441;29;20529;-70
2023/11/21 11:30:38;;;;;;;5.53;2.77;;;9.80;99.90;;;;;;4918811;29;20486;-70
2023/11/21 11:33:32;;;;;;;2.97;2.77;;;9.80;99.90;;;;;;4918836;29;20434;-70
2023/11/21 11:36:26;;;;;;;1.73;1.63;;;9.80;99.90;;;;;;4922590;29;20528;-69
2023/11/21 11:38:53;;;;;;;2.63;2.27;;;9.70;99.90;;;;;;4918195;29;20962;-71
2023/11/21 11:41:33;;;;;;;1.97;1.77;;;9.70;99.90;;;;;;4919045;29;20505;-71
2023/11/21 11:44:00;;;;;;;4.47;4.20;;;9.80;99.90;;;;;;4937294;29;20488;-70
2023/11/21 11:46:56;;;;;;;3.57;3.37;;;9.90;99.90;;;;;;4936914;29;20449;-68
2023/11/21 11:49:27;;;;;;;2.70;2.50;;;10.00;99.90;;;;;;4929271;29;20510;-71
2023/11/21 11:52:51;;;;;;;1.53;1.43;;;10.10;99.90;;;;;;4937189;29;20435;-72
2023/11/21 11:55:19;;;;;;;1.53;1.43;;;10.30;99.90;;;;;;4896011;29;20439;-70
2023/11/21 11:57:46;;;;;;;1.40;1.30;;;10.40;99.90;;;;;;4896816;29;20978;-69
2023/11/21 12:00:41;;;;;;;1.67;1.50;;;10.60;99.90;;;;;;4915507;29;20430;-70
2023/11/21 12:03:08;;;;;;;1.73;1.20;;;10.80;99.90;;;;;;4928775;29;20484;-70
2023/11/21 12:05:45;;;;;;;1.87;1.77;;;11.00;99.90;;;;;;4937092;29;20476;-71
2023/11/21 12:08:11;;;;;;;1.90;1.70;;;11.30;99.90;;;;;;4936104;29;20437;-70
2023/11/21 12:10:40;;;;;;;1.00;1.00;;;11.50;99.90;;;;;;4937111;29;20425;-70
2023/11/21 12:13:08;;;;;;;1.53;1.43;;;11.70;99.90;;;;;;4937060;29;20800;-71
2023/11/21 12:15:35;;;;;;;1.20;1.10;;;11.90;99.90;;;;;;4936850;29;20967;-70
2023/11/21 12:18:01;;;;;;;2.53;1.80;;;12.10;99.90;;;;;;4936785;29;20425;-70
2023/11/21 12:20:27;;;;;;;1.57;1.47;;;12.40;99.90;;;;;;4936756;29;20524;-71
2023/11/21 12:22:59;;;;;;;1.57;1.47;;;12.80;99.90;;;;;;4936814;29;20465;-71
2023/11/21 12:25:29;;;;;;;1.50;1.40;;;13.10;99.90;;;;;;4936842;29;20432;-71
2023/11/21 12:27:56;;;;;;;1.60;1.50;;;13.50;99.90;;;;;;4936616;29;20426;-71
2023/11/21 12:30:23;;;;;;;1.83;1.73;;;13.70;99.90;;;;;;4936062;29;20905;-71
2023/11/21 12:32:53;;;;;;;1.80;1.70;;;13.90;99.90;;;;;;4936700;29;20425;-71
2023/11/21 12:35:23;;;;;;;1.67;1.57;;;13.90;99.90;;;;;;4936711;29;20437;-70
2023/11/21 12:37:50;;;;;;;1.90;1.80;;;13.80;99.90;;;;;;4935059;29;20465;-71
2023/11/21 12:40:17;;;;;;;2.20;2.10;;;13.40;99.90;;;;;;4936547;29;20432;-71
2023/11/21 12:42:51;;;;;;;2.00;1.90;;;12.90;99.90;;;;;;4936322;29;20942;-71
2023/11/21 12:45:17;;;;;;;1.93;1.83;;;12.50;99.90;;;;;;4936555;29;20428;-71
2023/11/21 12:47:48;;;;;;;1.63;1.53;;;12.10;99.90;;;;;;4936211;29;20445;-71
2023/11/21 12:50:14;;;;;;;1.67;1.50;;;11.80;99.90;;;;;;4936289;29;20589;-70
2023/11/21 12:52:43;;;;;;;1.73;1.63;;;11.40;99.90;;;;;;4936388;29;20417;-71
2023/11/21 12:55:09;;;;;;;1.80;1.70;;;11.20;99.90;;;;;;4936422;29;20174;-71
2023/11/21 12:57:37;;;;;;;1.60;1.50;;;11.10;99.90;;;;;;4936071;29;20446;-71